Time,TemperatureF,DewpointF,PressureIn,WindDirection,WindDirectionDegrees,WindSpeedMPH,WindSpeedGustMPH,Humidity,HourlyPrecipIn,Conditions,Clouds,dailyrainin,SoftwareType,DateUTC
2013-02-09 00:01:00,30.0,25.0,30.21,East,97,10.0,13.0,80,0.00,,,0.00,,2013-02-09 06:01:00,
2013-02-09 00:11:00,30.0,25.0,30.21,East,97,10.0,13.0,80,0.00,,,0.00,,2013-02-09 06:11:00,
2013-02-09 00:21:00,30.0,25.0,30.21,ESE,114,13.0,15.0,80,0.00,,,0.00,,2013-02-09 06:21:00,
2013-02-09 00:31:00,30.0,25.0,30.23,SE,136,6.0,10.0,80,0.00,,,0.00,,2013-02-09 06:31:00,
2013-02-09 00:41:00,30.0,25.0,30.23,SE,136,6.0,10.0,80,0.00,,,0.00,,2013-02-09 06:41:00,
2013-02-09 00:52:00,30.0,25.0,30.20,SE,136,5.0,7.0,81,0.00,,,0.00,,2013-02-09 06:52:00,
2013-02-09 01:01:00,29.0,24.0,30.22,SE,133,6.0,10.0,81,0.00,,,0.00,,2013-02-09 07:01:00,
2013-02-09 01:11:00,29.0,24.0,30.22,SE,133,6.0,10.0,81,0.00,,,0.00,,2013-02-09 07:11:00,
2013-02-09 01:21:00,29.0,24.0,30.22,SE,129,6.0,8.0,81,0.00,,,0.00,,2013-02-09 07:21:00,
2013-02-09 01:31:00,29.0,24.0,30.21,SE,132,4.0,7.0,81,0.00,,,0.00,,2013-02-09 07:31:00,
2013-02-09 01:42:00,29.0,24.0,30.21,SE,132,4.0,7.0,81,0.00,,,0.00,,2013-02-09 07:42:00,
2013-02-09 01:52:00,29.0,24.0,30.21,SE,136,4.0,7.0,82,0.00,,,0.00,,2013-02-09 07:52:00,
2013-02-09 02:01:00,29.0,24.0,30.21,SE,130,6.0,13.0,82,0.00,,,0.00,,2013-02-09 08:01:00,
2013-02-09 02:11:00,29.0,24.0,30.21,SE,130,6.0,13.0,82,0.00,,,0.00,,2013-02-09 08:11:00,
2013-02-09 02:21:00,28.0,23.0,30.21,ESE,115,4.0,11.0,82,0.00,,,0.00,,2013-02-09 08:21:00,
2013-02-09 02:31:00,28.0,24.0,30.20,SE,125,6.0,10.0,83,0.00,,,0.00,,2013-02-09 08:31:00,
2013-02-09 02:42:00,28.0,24.0,30.20,SE,125,6.0,10.0,83,0.00,,,0.00,,2013-02-09 08:42:00,
2013-02-09 02:52:00,28.0,24.0,30.21,SE,135,9.0,12.0,83,0.00,,,0.00,,2013-02-09 08:52:00,
2013-02-09 03:02:00,28.0,24.0,30.19,SE,128,6.0,9.0,83,0.00,,,0.00,,2013-02-09 09:02:00,
2013-02-09 03:11:00,28.0,24.0,30.19,SE,128,6.0,9.0,83,0.00,,,0.00,,2013-02-09 09:11:00,
2013-02-09 03:21:00,28.0,24.0,30.21,SE,127,8.0,10.0,83,0.00,,,0.00,,2013-02-09 09:21:00,
2013-02-09 03:31:00,28.0,24.0,30.19,SE,143,7.0,10.0,83,0.00,,,0.00,,2013-02-09 09:31:00,
2013-02-09 03:41:00,28.0,24.0,30.19,SE,143,7.0,10.0,83,0.00,,,0.00,,2013-02-09 09:41:00,
2013-02-09 03:52:00,28.0,24.0,30.19,SE,127,6.0,10.0,84,0.00,,,0.00,,2013-02-09 09:52:00,
2013-02-09 04:01:00,28.0,24.0,30.19,SE,145,10.0,12.0,84,0.00,,,0.00,,2013-02-09 10:01:00,
2013-02-09 04:11:00,28.0,24.0,30.19,SE,145,10.0,12.0,84,0.00,,,0.00,,2013-02-09 10:11:00,
2013-02-09 04:21:00,28.0,24.0,30.18,SE,142,5.0,10.0,84,0.00,,,0.00,,2013-02-09 10:21:00,
2013-02-09 04:31:00,28.0,24.0,30.18,SE,141,7.0,8.0,84,0.00,,,0.00,,2013-02-09 10:31:00,
2013-02-09 04:41:00,28.0,24.0,30.18,SE,141,7.0,8.0,84,0.00,,,0.00,,2013-02-09 10:41:00,
2013-02-09 04:51:00,29.0,25.0,30.17,SE,131,10.0,10.0,84,0.00,,,0.00,,2013-02-09 10:51:00,
2013-02-09 05:01:00,29.0,25.0,30.19,SE,138,6.0,10.0,84,0.00,,,0.00,,2013-02-09 11:01:00,
2013-02-09 05:11:00,29.0,25.0,30.19,SE,138,6.0,10.0,84,0.00,,,0.00,,2013-02-09 11:11:00,
2013-02-09 05:21:00,29.0,25.0,30.17,ESE,121,7.0,9.0,84,0.00,,,0.00,,2013-02-09 11:21:00,
2013-02-09 05:31:00,29.0,25.0,30.17,SE,141,6.0,10.0,84,0.00,,,0.00,,2013-02-09 11:31:00,
2013-02-09 05:41:00,29.0,25.0,30.17,SE,141,6.0,10.0,84,0.00,,,0.00,,2013-02-09 11:41:00,
2013-02-09 05:52:00,29.0,25.0,30.16,East,96,4.0,9.0,85,0.00,,,0.00,,2013-02-09 11:52:00,
2013-02-09 06:02:00,29.0,25.0,30.14,ESE,119,6.0,8.0,84,0.00,,,0.00,,2013-02-09 12:02:00,
2013-02-09 06:11:00,29.0,25.0,30.14,ESE,119,6.0,8.0,84,0.00,,,0.00,,2013-02-09 12:11:00,
2013-02-09 06:21:00,29.0,25.0,30.16,SE,137,9.0,11.0,85,0.00,,,0.00,,2013-02-09 12:21:00,
2013-02-09 06:32:00,29.0,25.0,30.14,SSE,148,5.0,9.0,85,0.00,,,0.00,,2013-02-09 12:32:00,
2013-02-09 06:42:00,29.0,25.0,30.14,SSE,148,5.0,9.0,85,0.00,,,0.00,,2013-02-09 12:42:00,
2013-02-09 06:52:00,29.0,25.0,30.15,SSE,150,5.0,11.0,85,0.00,,,0.00,,2013-02-09 12:52:00,
2013-02-09 07:02:00,29.0,25.0,30.14,SE,138,10.0,14.0,85,0.00,,,0.00,,2013-02-09 13:02:00,
2013-02-09 07:11:00,29.0,25.0,30.14,SE,138,10.0,14.0,85,0.00,,,0.00,,2013-02-09 13:11:00,
2013-02-09 07:21:00,29.0,25.0,30.16,SSE,151,5.0,12.0,85,0.00,,,0.00,,2013-02-09 13:21:00,
2013-02-09 07:32:00,29.0,25.0,30.14,SE,139,8.0,13.0,85,0.00,,,0.00,,2013-02-09 13:32:00,
2013-02-09 07:42:00,29.0,25.0,30.14,SE,139,8.0,13.0,85,0.00,,,0.00,,2013-02-09 13:42:00,
2013-02-09 07:52:00,29.0,25.0,30.16,SE,142,7.0,10.0,85,0.00,,,0.00,,2013-02-09 13:52:00,
2013-02-09 08:01:00,29.0,25.0,30.14,SE,137,8.0,11.0,85,0.00,,,0.00,,2013-02-09 14:01:00,
2013-02-09 08:11:00,29.0,25.0,30.14,SE,137,8.0,11.0,85,0.00,,,0.00,,2013-02-09 14:11:00,
2013-02-09 08:21:00,30.0,26.0,30.14,ESE,117,4.0,10.0,85,0.00,,,0.00,,2013-02-09 14:21:00,
2013-02-09 08:31:00,30.0,26.0,30.14,SE,145,14.0,15.0,85,0.00,,,0.00,,2013-02-09 14:31:00,
2013-02-09 08:41:00,30.0,26.0,30.14,SE,145,14.0,15.0,85,0.00,,,0.00,,2013-02-09 14:41:00,
2013-02-09 08:52:00,30.0,26.0,30.14,SSE,148,12.0,13.0,85,0.00,,,0.00,,2013-02-09 14:52:00,
2013-02-09 09:01:00,31.0,27.0,30.13,SE,140,6.0,9.0,85,0.00,,,0.00,,2013-02-09 15:01:00,
2013-02-09 09:11:00,31.0,27.0,30.13,SE,140,6.0,9.0,85,0.00,,,0.00,,2013-02-09 15:11:00,
2013-02-09 09:21:00,32.0,28.0,30.13,SSE,150,7.0,11.0,84,0.00,,,0.00,,2013-02-09 15:21:00,
2013-02-09 09:32:00,33.0,28.0,30.13,SE,140,9.0,13.0,82,0.00,,,0.00,,2013-02-09 15:32:00,
2013-02-09 09:42:00,33.0,28.0,30.13,SE,140,9.0,13.0,82,0.00,,,0.00,,2013-02-09 15:42:00,
2013-02-09 09:52:00,34.0,28.0,30.14,SE,135,12.0,13.0,78,0.00,,,0.00,,2013-02-09 15:52:00,
2013-02-09 10:01:00,35.0,29.0,30.14,SE,146,6.0,12.0,77,0.00,,,0.00,,2013-02-09 16:01:00,
2013-02-09 10:11:00,35.0,29.0,30.14,SE,146,6.0,12.0,77,0.00,,,0.00,,2013-02-09 16:11:00,
2013-02-09 10:22:00,35.0,28.0,30.13,SSE,149,8.0,10.0,76,0.00,,,0.00,,2013-02-09 16:22:00,
2013-02-09 10:31:00,35.0,28.0,30.14,SSE,153,9.0,12.0,74,0.00,,,0.00,,2013-02-09 16:31:00,
2013-02-09 10:41:00,35.0,28.0,30.14,SSE,153,9.0,12.0,74,0.00,,,0.00,,2013-02-09 16:41:00,
2013-02-09 10:51:00,35.0,28.0,30.14,South,174,4.0,13.0,74,0.00,,,0.00,,2013-02-09 16:51:00,
2013-02-09 11:01:00,35.0,28.0,30.13,SSE,158,11.0,12.0,74,0.00,,,0.00,,2013-02-09 17:01:00,
2013-02-09 11:11:00,35.0,28.0,30.13,SSE,158,11.0,12.0,74,0.00,,,0.00,,2013-02-09 17:11:00,
2013-02-09 11:21:00,36.0,28.0,30.13,SSE,147,9.0,13.0,72,0.00,,,0.00,,2013-02-09 17:21:00,
2013-02-09 11:32:00,36.0,28.0,30.13,SSE,147,9.0,13.0,72,0.00,,,0.00,,2013-02-09 17:32:00,
2013-02-09 11:41:00,36.0,28.0,30.13,SSE,147,9.0,13.0,72,0.00,,,0.00,,2013-02-09 17:41:00,
2013-02-09 11:52:00,35.0,27.0,30.11,SE,145,6.0,10.0,73,0.00,,,0.00,,2013-02-09 17:52:00,
2013-02-09 12:01:00,37.0,29.0,30.11,SE,128,8.0,10.0,72,0.00,,,0.00,,2013-02-09 18:01:00,
2013-02-09 12:12:00,37.0,29.0,30.11,SE,128,8.0,10.0,72,0.00,,,0.00,,2013-02-09 18:12:00,
2013-02-09 12:23:00,38.0,29.0,30.08,SE,131,8.0,15.0,69,0.00,,,0.00,,2013-02-09 18:23:00,
2013-02-09 12:32:00,38.0,29.0,30.06,SE,133,7.0,14.0,70,0.00,,,0.00,,2013-02-09 18:32:00,
2013-02-09 12:42:00,38.0,29.0,30.06,SE,133,7.0,14.0,70,0.00,,,0.00,,2013-02-09 18:42:00,
2013-02-09 12:52:00,40.0,29.0,30.06,SSE,151,5.0,10.0,65,0.00,,,0.00,,2013-02-09 18:52:00,
2013-02-09 13:01:00,41.0,30.0,30.04,ESE,121,8.0,14.0,64,0.00,,,0.00,,2013-02-09 19:01:00,
2013-02-09 13:11:00,41.0,30.0,30.04,ESE,121,8.0,14.0,64,0.00,,,0.00,,2013-02-09 19:11:00,
2013-02-09 13:22:00,40.0,29.0,30.03,SE,138,7.0,12.0,65,0.00,,,0.00,,2013-02-09 19:22:00,
2013-02-09 13:31:00,40.0,29.0,30.03,SE,138,7.0,12.0,65,0.00,,,0.00,,2013-02-09 19:31:00,
2013-02-09 13:42:00,40.0,29.0,30.03,SE,138,7.0,12.0,65,0.00,,,0.00,,2013-02-09 19:42:00,
2013-02-09 13:52:00,41.0,30.0,30.01,SSE,147,7.0,14.0,64,0.00,,,0.00,,2013-02-09 19:52:00,
2013-02-09 14:01:00,42.0,31.0,30.02,SE,137,8.0,13.0,64,0.00,,,0.00,,2013-02-09 20:01:00,
2013-02-09 14:11:00,42.0,31.0,30.02,SE,137,8.0,13.0,64,0.00,,,0.00,,2013-02-09 20:11:00,
2013-02-09 14:21:00,43.0,31.0,29.98,SE,131,10.0,15.0,63,0.00,,,0.00,,2013-02-09 20:21:00,
2013-02-09 14:32:00,43.0,31.0,29.97,SE,128,4.0,14.0,62,0.00,,,0.00,,2013-02-09 20:32:00,
2013-02-09 14:42:00,43.0,31.0,29.97,SE,128,4.0,14.0,62,0.00,,,0.00,,2013-02-09 20:42:00,
2013-02-09 14:52:00,44.0,31.0,29.96,East,90,12.0,14.0,60,0.00,,,0.00,,2013-02-09 20:52:00,
2013-02-09 15:02:00,45.0,31.0,29.96,SE,127,11.0,14.0,58,0.00,,,0.00,,2013-02-09 21:02:00,
2013-02-09 15:11:00,45.0,31.0,29.96,SE,127,11.0,14.0,58,0.00,,,0.00,,2013-02-09 21:11:00,
2013-02-09 15:21:00,45.0,31.0,29.95,ESE,107,9.0,13.0,58,0.00,,,0.00,,2013-02-09 21:21:00,
2013-02-09 15:31:00,45.0,32.0,29.94,SE,140,9.0,14.0,59,0.00,,,0.00,,2013-02-09 21:31:00,
2013-02-09 15:41:00,45.0,32.0,29.94,SE,140,9.0,14.0,59,0.00,,,0.00,,2013-02-09 21:41:00,
2013-02-09 15:52:00,45.0,32.0,29.97,SE,134,6.0,10.0,59,0.00,,,0.00,,2013-02-09 21:52:00,
2013-02-09 16:01:00,45.0,31.0,29.94,SE,134,6.0,16.0,58,0.00,,,0.00,,2013-02-09 22:01:00,
2013-02-09 16:11:00,45.0,31.0,29.94,SE,134,6.0,16.0,58,0.00,,,0.00,,2013-02-09 22:11:00,
2013-02-09 16:21:00,44.0,30.0,29.95,SE,140,9.0,11.0,58,0.00,,,0.00,,2013-02-09 22:21:00,
2013-02-09 16:32:00,44.0,31.0,29.93,SE,141,7.0,12.0,59,0.00,,,0.00,,2013-02-09 22:32:00,
2013-02-09 16:42:00,44.0,31.0,29.93,SE,141,7.0,12.0,59,0.00,,,0.00,,2013-02-09 22:42:00,
2013-02-09 16:52:00,44.0,31.0,29.92,ESE,120,10.0,13.0,59,0.00,,,0.00,,2013-02-09 22:52:00,
2013-02-09 17:01:00,44.0,31.0,29.91,SSE,147,6.0,12.0,59,0.00,,,0.00,,2013-02-09 23:01:00,
2013-02-09 17:11:00,44.0,31.0,29.91,SSE,147,6.0,12.0,59,0.00,,,0.00,,2013-02-09 23:11:00,
2013-02-09 17:21:00,44.0,30.0,29.91,SE,144,9.0,13.0,58,0.00,,,0.00,,2013-02-09 23:21:00,
2013-02-09 17:31:00,44.0,30.0,29.89,ESE,123,7.0,13.0,58,0.00,,,0.00,,2013-02-09 23:31:00,
2013-02-09 17:42:00,44.0,30.0,29.89,ESE,123,7.0,13.0,58,0.00,,,0.00,,2013-02-09 23:42:00,
2013-02-09 17:52:00,45.0,29.0,29.91,SE,145,6.0,10.0,54,0.00,,,0.00,,2013-02-09 23:52:00,
2013-02-09 18:02:00,44.0,28.0,29.91,SSE,150,5.0,12.0,53,0.00,,,0.00,,2013-02-10 00:02:00,
2013-02-09 18:11:00,44.0,28.0,29.91,SSE,150,5.0,12.0,53,0.00,,,0.00,,2013-02-10 00:11:00,
2013-02-09 18:21:00,44.0,29.0,29.89,SE,125,6.0,10.0,55,0.00,,,0.00,,2013-02-10 00:21:00,
2013-02-09 18:32:00,43.0,28.0,29.90,SE,124,11.0,14.0,56,0.00,,,0.00,,2013-02-10 00:32:00,
2013-02-09 18:42:00,43.0,28.0,29.90,SE,124,11.0,14.0,56,0.00,,,0.00,,2013-02-10 00:42:00,
2013-02-09 18:52:00,43.0,29.0,29.88,SE,135,6.0,13.0,58,0.00,,,0.00,,2013-02-10 00:52:00,
2013-02-09 19:01:00,42.0,29.0,29.86,SE,134,7.0,12.0,59,0.00,,,0.00,,2013-02-10 01:01:00,
2013-02-09 19:12:00,42.0,29.0,29.86,SE,134,7.0,12.0,59,0.00,,,0.00,,2013-02-10 01:12:00,
2013-02-09 19:21:00,42.0,29.0,29.86,SE,144,10.0,14.0,60,0.00,,,0.00,,2013-02-10 01:21:00,
2013-02-09 19:31:00,42.0,31.0,29.85,SE,134,4.0,8.0,64,0.00,,,0.00,,2013-02-10 01:31:00,
2013-02-09 19:42:00,42.0,31.0,29.85,SE,134,4.0,8.0,64,0.00,,,0.00,,2013-02-10 01:42:00,
2013-02-09 19:52:00,41.0,30.0,29.86,SE,144,5.0,11.0,64,0.00,,,0.00,,2013-02-10 01:52:00,
2013-02-09 20:01:00,41.0,31.0,29.85,SSE,158,6.0,9.0,67,0.00,,,0.00,,2013-02-10 02:01:00,
2013-02-09 20:11:00,41.0,31.0,29.85,SSE,158,6.0,9.0,67,0.00,,,0.00,,2013-02-10 02:11:00,
2013-02-09 20:22:00,41.0,32.0,29.87,SE,139,4.0,9.0,70,0.00,,,0.00,,2013-02-10 02:22:00,
2013-02-09 20:32:00,40.0,31.0,29.85,SSE,164,10.0,13.0,71,0.01,,,0.01,,2013-02-10 02:32:00,
2013-02-09 20:42:00,40.0,31.0,29.85,SSE,164,10.0,13.0,71,0.01,,,0.01,,2013-02-10 02:42:00,
2013-02-09 20:52:00,40.0,32.0,29.88,SE,142,9.0,15.0,72,0.01,,,0.01,,2013-02-10 02:52:00,
2013-02-09 21:01:00,40.0,33.0,29.85,SE,141,10.0,12.0,75,0.01,,,0.01,,2013-02-10 03:01:00,
2013-02-09 21:11:00,40.0,33.0,29.85,SE,141,10.0,12.0,75,0.01,,,0.01,,2013-02-10 03:11:00,
2013-02-09 21:21:00,39.0,32.0,29.84,SE,140,7.0,14.0,77,0.01,,,0.01,,2013-02-10 03:21:00,
2013-02-09 21:32:00,39.0,33.0,29.83,SE,138,9.0,13.0,78,0.00,,,0.01,,2013-02-10 03:32:00,
2013-02-09 21:41:00,39.0,33.0,29.83,SE,138,9.0,13.0,78,0.00,,,0.01,,2013-02-10 03:41:00,
2013-02-09 21:52:00,39.0,33.0,29.83,SSE,152,12.0,14.0,78,0.00,,,0.01,,2013-02-10 03:52:00,
2013-02-09 22:01:00,39.0,33.0,29.85,SSE,151,8.0,14.0,79,0.00,,,0.01,,2013-02-10 04:01:00,
2013-02-09 22:11:00,39.0,33.0,29.85,SSE,151,8.0,14.0,79,0.00,,,0.01,,2013-02-10 04:11:00,
2013-02-09 22:21:00,39.0,33.0,29.82,SSE,150,9.0,14.0,80,0.00,,,0.01,,2013-02-10 04:21:00,
2013-02-09 22:32:00,39.0,33.0,29.81,SE,129,10.0,13.0,80,0.00,,,0.01,,2013-02-10 04:32:00,
2013-02-09 22:41:00,39.0,33.0,29.81,SE,129,10.0,13.0,80,0.00,,,0.01,,2013-02-10 04:41:00,
2013-02-09 22:52:00,39.0,33.0,29.83,SE,146,7.0,14.0,80,0.00,,,0.01,,2013-02-10 04:52:00,
2013-02-09 23:01:00,39.0,33.0,29.78,SSE,147,11.0,20.0,80,0.00,,,0.01,,2013-02-10 05:01:00,
2013-02-09 23:11:00,39.0,33.0,29.78,SSE,147,11.0,20.0,80,0.00,,,0.01,,2013-02-10 05:11:00,
2013-02-09 23:22:00,39.0,33.0,29.78,SE,126,14.0,16.0,80,0.00,,,0.01,,2013-02-10 05:22:00,
2013-02-09 23:31:00,39.0,33.0,29.77,SSE,154,7.0,16.0,80,0.00,,,0.01,,2013-02-10 05:31:00,
2013-02-09 23:41:00,39.0,33.0,29.77,SSE,154,7.0,16.0,80,0.00,,,0.01,,2013-02-10 05:41:00,
2013-02-09 23:52:00,39.0,33.0,29.77,SSE,149,6.0,13.0,80,0.00,,,0.01,,2013-02-10 05:52:00,